Time;durP1;ratioP1;P1;durP2;ratioP2;P2;SDS_P1;SDS_P2;PMS_P1;PMS_P2;Temp;Humidity;BMP_temperature;BMP_pressure;BME280_temperature;BME280_humidity;BME280_pressure;Samples;Min_cycle;Max_cycle;Signal;HPM_P1;HPM_P2
2022/01/20 00:03:35;;;;;;;8.05;5.65;;;;;;;;;;6185969;23;20084;-67
2022/01/20 00:08:51;;;;;;;3.88;2.88;;;;;;;;;;6186280;23;20008;-69
2022/01/20 00:27:51;;;;;;;5.95;3.70;;;;;;;;;;6186204;23;20013;-70
2022/01/20 00:35:24;;;;;;;3.58;2.42;;;;;;;;;;6159704;23;20020;-66
2022/01/20 00:37:50;;;;;;;4.55;3.13;;;;;;;;;;6160177;23;20017;-66
2022/01/20 00:40:16;;;;;;;10.07;7.03;;;;;;;;;;6185812;23;20040;-68
2022/01/20 00:42:41;;;;;;;6.72;4.95;;;;;;;;;;6159725;23;20096;-67
2022/01/20 00:45:07;;;;;;;5.85;3.95;;;;;;;;;;6159597;23;20001;-68
2022/01/20 00:47:33;;;;;;;5.35;3.90;;;;;;;;;;6159240;23;20056;-68
2022/01/20 00:49:59;;;;;;;8.98;5.53;;;;;;;;;;6185574;23;19997;-67
2022/01/20 00:52:24;;;;;;;10.88;6.70;;;;;;;;;;6159241;23;20002;-67
2022/01/20 00:54:50;;;;;;;7.20;4.30;;;;;;;;;;6159194;23;20135;-67
2022/01/20 00:57:16;;;;;;;9.38;6.20;;;;;;;;;;6185990;23;20001;-70
2022/01/20 00:59:41;;;;;;;2.72;2.05;;;;;;;;;;6159217;23;20001;-70
2022/01/20 01:02:08;;;;;;;1.63;1.45;;;;;;;;;;6185677;23;20005;-70
2022/01/20 01:04:34;;;;;;;10.07;6.53;;;;;;;;;;6185551;23;20025;-70
2022/01/20 01:07:35;;;;;;;10.02;6.88;;;;;;;;;;6159396;23;20310;-70
2022/01/20 01:10:00;;;;;;;7.72;6.60;;;;;;;;;;6159394;23;20049;-70
2022/01/20 01:12:38;;;;;;;6.18;3.95;;;;;;;;;;6159149;23;20004;-70
2022/01/20 01:15:07;;;;;;;11.13;6.50;;;;;;;;;;6159308;23;20033;-70
2022/01/20 01:20:20;;;;;;;10.35;6.90;;;;;;;;;;6159603;23;20051;-70
2022/01/20 01:22:45;;;;;;;9.38;6.35;;;;;;;;;;6185885;23;20311;-70
2022/01/20 01:25:11;;;;;;;8.48;6.35;;;;;;;;;;6159268;23;20012;-70
2022/01/20 01:27:40;;;;;;;9.38;6.25;;;;;;;;;;6159420;23;20005;-70
2022/01/20 01:30:20;;;;;;;10.32;6.50;;;;;;;;;;6159129;23;20019;-70
2022/01/20 01:32:52;;;;;;;9.63;6.20;;;;;;;;;;6159263;23;20063;-70
2022/01/20 01:35:20;;;;;;;1.85;1.75;;;;;;;;;;6158927;23;20005;-69
2022/01/20 01:40:21;;;;;;;7.07;5.15;;;;;;;;;;6159861;23;20009;-69
2022/01/20 01:42:50;;;;;;;3.00;2.25;;;;;;;;;;6136866;23;20009;-69
2022/01/20 01:45:15;;;;;;;6.88;5.45;;;;;;;;;;6187507;23;20005;-69
2022/01/20 01:47:41;;;;;;;8.35;5.00;;;;;;;;;;6137014;23;20088;-69
2022/01/20 01:50:07;;;;;;;9.90;6.07;;;;;;;;;;6160920;23;20015;-71
2022/01/20 01:52:33;;;;;;;5.30;4.40;;;;;;;;;;6160748;23;19997;-70
2022/01/20 01:54:58;;;;;;;5.68;4.10;;;;;;;;;;6160989;23;20032;-70
2022/01/20 01:57:24;;;;;;;8.70;5.28;;;;;;;;;;6160922;23;20083;-71
2022/01/20 01:59:51;;;;;;;6.03;4.30;;;;;;;;;;6187335;23;20050;-70
2022/01/20 02:02:23;;;;;;;9.48;5.38;;;;;;;;;;6186842;23;20028;-70
2022/01/20 02:04:50;;;;;;;6.55;4.63;;;;;;;;;;6160857;23;20450;-70
2022/01/20 02:08:16;;;;;;;6.97;5.68;;;;;;;;;;6187355;23;20060;-70
2022/01/20 02:18:51;;;;;;;4.93;4.25;;;;;;;;;;6161146;23;20009;-71
2022/01/20 02:22:01;;;;;;;8.25;5.32;;;;;;;;;;6097031;23;20014;-70
2022/01/20 02:24:31;;;;;;;6.90;5.70;;;;;;;;;;6072082;23;20014;-70
2022/01/20 02:26:57;;;;;;;5.82;5.13;;;;;;;;;;6143988;23;20013;-70
2022/01/20 02:29:29;;;;;;;4.72;3.60;;;;;;;;;;6160583;23;20012;-71
2022/01/20 02:31:55;;;;;;;5.68;4.43;;;;;;;;;;6160788;23;20385;-71
2022/01/20 02:34:21;;;;;;;6.55;5.63;;;;;;;;;;6187195;23;20001;-71
2022/01/20 02:36:48;;;;;;;7.55;5.18;;;;;;;;;;6186679;23;20095;-71
2022/01/20 02:44:53;;;;;;;6.18;5.15;;;;;;;;;;6160479;23;20009;-67
2022/01/20 02:47:20;;;;;;;;;;;;;;;;;;6161027;23;20337;-67
2022/01/20 02:49:45;;;;;;;5.78;4.05;;;;;;;;;;6160285;23;19954;-67
2022/01/20 02:52:11;;;;;;;5.82;5.15;;;;;;;;;;6160238;23;20001;-69
2022/01/20 02:54:37;;;;;;;7.93;5.20;;;;;;;;;;6186747;23;20377;-69
2022/01/20 02:57:06;;;;;;;4.05;2.88;;;;;;;;;;6159908;23;20001;-68
2022/01/20 02:59:34;;;;;;;2.80;2.60;;;;;;;;;;6187530;23;20442;-68
2022/01/20 03:02:04;;;;;;;5.13;3.42;;;;;;;;;;6186989;23;20414;-68
2022/01/20 03:04:30;;;;;;;2.70;2.35;;;;;;;;;;6160408;23;20032;-68
2022/01/20 03:06:59;;;;;;;6.45;4.40;;;;;;;;;;6160414;23;20012;-68
2022/01/20 03:09:25;;;;;;;3.13;2.88;;;;;;;;;;6160070;23;20005;-68
2022/01/20 03:11:51;;;;;;;5.43;4.65;;;;;;;;;;6160101;23;20099;-68
2022/01/20 03:14:17;;;;;;;2.00;1.88;;;;;;;;;;6186520;23;20000;-68
2022/01/20 03:16:47;;;;;;;2.83;2.53;;;;;;;;;;6160398;23;20008;-68
2022/01/20 03:19:13;;;;;;;5.65;4.90;;;;;;;;;;6186546;23;20005;-68
2022/01/20 03:21:39;;;;;;;4.03;3.40;;;;;;;;;;6160291;23;20442;-68
2022/01/20 03:24:05;;;;;;;2.70;2.15;;;;;;;;;;6186578;23;20004;-68
2022/01/20 03:26:32;;;;;;;3.55;3.25;;;;;;;;;;6135956;23;20033;-68
2022/01/20 03:28:58;;;;;;;3.55;3.22;;;;;;;;;;6160213;23;20433;-68
2022/01/20 03:31:25;;;;;;;4.68;3.17;;;;;;;;;;6160271;23;20062;-68
2022/01/20 03:33:50;;;;;;;4.72;4.30;;;;;;;;;;6160222;23;20001;-68
2022/01/20 03:36:17;;;;;;;5.90;3.88;;;;;;;;;;6159700;23;20012;-68
2022/01/20 03:38:44;;;;;;;4.38;3.95;;;;;;;;;;6161435;23;20378;-68
2022/01/20 03:41:12;;;;;;;1.90;1.73;;;;;;;;;;6135845;23;20005;-68
2022/01/20 03:43:37;;;;;;;3.88;2.33;;;;;;;;;;6186331;23;20000;-67
2022/01/20 03:46:06;;;;;;;4.57;3.78;;;;;;;;;;6135405;23;20013;-68
2022/01/20 03:48:38;;;;;;;5.10;4.60;;;;;;;;;;6186373;23;20001;-68
2022/01/20 03:51:05;;;;;;;6.22;3.80;;;;;;;;;;6186739;23;20429;-68
2022/01/20 03:53:36;;;;;;;3.72;3.42;;;;;;;;;;6185545;23;20361;-69
2022/01/20 03:56:02;;;;;;;4.20;3.70;;;;;;;;;;6135307;23;20433;-69
2022/01/20 03:58:37;;;;;;;2.35;2.13;;;;;;;;;;6137256;23;20000;-66
2022/01/20 04:01:07;;;;;;;4.43;4.03;;;;;;;;;;6159754;23;20029;-67
2022/01/20 04:03:56;;;;;;;4.03;3.63;;;;;;;;;;6185041;23;20434;-67
2022/01/20 04:06:35;;;;;;;2.13;1.95;;;;;;;;;;6160068;23;20028;-67
2022/01/20 04:09:02;;;;;;;3.45;2.47;;;;;;;;;;6186448;23;20434;-67
2022/01/20 04:11:28;;;;;;;4.65;4.25;;;;;;;;;;6160233;23;20029;-67
2022/01/20 04:13:54;;;;;;;6.85;4.72;;;;;;;;;;6159552;23;20078;-67
2022/01/20 04:16:35;;;;;;;5.25;4.40;;;;;;;;;;6159655;23;20005;-67
2022/01/20 04:19:04;;;;;;;3.58;3.35;;;;;;;;;;6159570;23;20063;-67
2022/01/20 04:21:30;;;;;;;3.63;3.15;;;;;;;;;;6159377;23;20028;-67
2022/01/20 04:23:57;;;;;;;5.38;4.03;;;;;;;;;;6185826;23;20009;-67
2022/01/20 04:26:23;;;;;;;4.07;3.65;;;;;;;;;;6159799;23;20040;-67
2022/01/20 04:28:53;;;;;;;4.38;3.97;;;;;;;;;;6159575;23;20015;-67
2022/01/20 04:31:20;;;;;;;3.90;3.50;;;;;;;;;;6159653;23;20008;-67
2022/01/20 04:33:46;;;;;;;3.38;3.13;;;;;;;;;;6159593;23;20311;-67
2022/01/20 04:36:11;;;;;;;2.00;1.85;;;;;;;;;;6153040;23;20044;-67
2022/01/20 04:38:38;;;;;;;5.20;4.68;;;;;;;;;;6130576;23;20010;-67
2022/01/20 04:41:04;;;;;;;4.07;3.75;;;;;;;;;;6129999;23;20060;-67
2022/01/20 04:43:30;;;;;;;3.45;2.85;;;;;;;;;;6130271;23;20016;-67
2022/01/20 04:46:09;;;;;;;4.80;4.28;;;;;;;;;;6105611;23;20006;-67
2022/01/20 04:57:16;;;;;;;5.45;4.95;;;;;;;;;;6129880;23;20009;-66
2022/01/20 04:59:45;;;;;;;3.40;2.88;;;;;;;;;;6129995;23;20020;-65
2022/01/20 05:02:10;;;;;;;4.32;3.92;;;;;;;;;;6130260;23;20295;-68
2022/01/20 05:04:52;;;;;;;3.38;3.05;;;;;;;;;;6130259;23;20036;-68
2022/01/20 05:07:44;;;;;;;5.22;4.72;;;;;;;;;;6130299;23;20013;-68
2022/01/20 05:10:12;;;;;;;6.93;4.78;;;;;;;;;;6129842;23;20005;-67
2022/01/20 05:15:20;;;;;;;7.28;3.95;;;;;;;;;;6131674;23;20382;-67
2022/01/20 05:17:47;;;;;;;3.63;3.33;;;;;;;;;;6109481;23;20005;-67
2022/01/20 05:20:12;;;;;;;4.95;3.17;;;;;;;;;;6159343;23;20037;-67
2022/01/20 05:22:38;;;;;;;6.63;5.05;;;;;;;;;;6159355;23;20001;-67
2022/01/20 05:25:06;;;;;;;5.65;4.72;;;;;;;;;;6132681;23;20006;-66
2022/01/20 05:27:31;;;;;;;5.47;4.00;;;;;;;;;;6108405;23;20013;-66
2022/01/20 05:29:57;;;;;;;4.65;4.15;;;;;;;;;;6132820;23;20013;-66
2022/01/20 05:32:25;;;;;;;7.00;4.95;;;;;;;;;;6133244;23;20438;-66
2022/01/20 05:34:51;;;;;;;5.85;4.40;;;;;;;;;;6133001;23;20012;-67
2022/01/20 05:37:17;;;;;;;4.53;4.13;;;;;;;;;;6132288;23;20021;-68
2022/01/20 05:39:44;;;;;;;6.13;5.18;;;;;;;;;;6132764;23;20017;-68
2022/01/20 05:42:12;;;;;;;3.78;3.25;;;;;;;;;;6132234;23;20013;-65
2022/01/20 05:44:50;;;;;;;6.80;4.93;;;;;;;;;;6133184;23;20009;-69
2022/01/20 05:47:18;;;;;;;5.18;4.38;;;;;;;;;;6132953;23;20010;-68
2022/01/20 05:50:04;;;;;;;6.68;5.13;;;;;;;;;;6129018;23;20009;-65
2022/01/20 05:52:30;;;;;;;5.32;4.30;;;;;;;;;;6132878;23;20456;-66
2022/01/20 05:54:56;;;;;;;4.75;3.90;;;;;;;;;;6132750;23;20001;-66
2022/01/20 05:57:22;;;;;;;5.60;4.28;;;;;;;;;;6159340;23;20052;-65
2022/01/20 05:59:51;;;;;;;6.93;5.00;;;;;;;;;;6132724;23;20422;-66
2022/01/20 06:02:36;;;;;;;5.85;4.30;;;;;;;;;;6132745;23;20005;-66
2022/01/20 06:05:04;;;;;;;7.00;4.70;;;;;;;;;;6133094;23;20010;-68
2022/01/20 06:07:30;;;;;;;7.40;5.03;;;;;;;;;;6132839;23;20057;-70
2022/01/20 06:09:55;;;;;;;6.60;4.80;;;;;;;;;;6132650;23;20010;-70
2022/01/20 06:12:21;;;;;;;6.35;5.25;;;;;;;;;;6133065;23;20034;-69
2022/01/20 06:14:46;;;;;;;7.47;5.15;;;;;;;;;;6158675;23;20334;-70
2022/01/20 06:17:15;;;;;;;5.93;5.32;;;;;;;;;;6132489;23;20080;-69
2022/01/20 06:19:42;;;;;;;5.53;4.40;;;;;;;;;;6132423;23;20048;-69
2022/01/20 06:22:13;;;;;;;5.43;4.35;;;;;;;;;;6132659;23;20006;-70
2022/01/20 06:24:40;;;;;;;8.70;5.93;;;;;;;;;;6132413;23;20033;-70
2022/01/20 06:27:06;;;;;;;8.15;5.53;;;;;;;;;;6148592;23;20001;-70
2022/01/20 06:29:31;;;;;;;7.90;5.72;;;;;;;;;;6126888;23;20101;-70
2022/01/20 06:31:57;;;;;;;5.47;3.50;;;;;;;;;;6126658;23;20033;-69
2022/01/20 06:34:22;;;;;;;4.75;4.25;;;;;;;;;;6126728;23;20005;-70
2022/01/20 06:36:48;;;;;;;7.43;4.82;;;;;;;;;;6109670;23;20025;-70
2022/01/20 06:39:14;;;;;;;7.45;5.38;;;;;;;;;;6126358;23;20013;-69
2022/01/20 06:41:41;;;;;;;7.75;3.97;;;;;;;;;;6126857;23;20791;-70
2022/01/20 06:44:07;;;;;;;7.93;5.32;;;;;;;;;;6126238;23;20005;-70
2022/01/20 06:46:32;;;;;;;5.15;4.45;;;;;;;;;;6152585;23;19998;-69
2022/01/20 06:49:13;;;;;;;6.07;5.10;;;;;;;;;;6126359;23;20342;-69
2022/01/20 06:51:58;;;;;;;7.32;5.97;;;;;;;;;;6151939;23;20096;-69
2022/01/20 06:54:24;;;;;;;8.05;4.75;;;;;;;;;;6124817;23;20005;-69
2022/01/20 06:56:53;;;;;;;6.97;5.20;;;;;;;;;;6125556;23;20008;-69
2022/01/20 06:59:19;;;;;;;2.83;2.45;;;;;;;;;;6126253;23;20434;-70
2022/01/20 07:01:45;;;;;;;4.57;3.88;;;;;;;;;;6150851;23;20064;-70
2022/01/20 07:04:19;;;;;;;9.13;5.50;;;;;;;;;;6126417;23;20017;-69
2022/01/20 07:06:45;;;;;;;7.32;5.03;;;;;;;;;;6150970;23;20005;-70
2022/01/20 07:09:29;;;;;;;6.90;4.60;;;;;;;;;;6152679;23;20039;-69
2022/01/20 07:11:59;;;;;;;7.13;4.50;;;;;;;;;;6150931;23;20013;-69
2022/01/20 07:14:25;;;;;;;8.75;5.55;;;;;;;;;;6125651;23;20014;-70
2022/01/20 07:16:51;;;;;;;7.43;4.28;;;;;;;;;;6126381;23;20005;-70
2022/01/20 07:19:17;;;;;;;9.07;4.32;;;;;;;;;;6152726;23;20005;-69
2022/01/20 07:21:43;;;;;;;7.40;4.50;;;;;;;;;;6126450;23;20546;-70
2022/01/20 07:24:12;;;;;;;6.63;4.25;;;;;;;;;;6126735;23;20009;-70
2022/01/20 07:26:37;;;;;;;4.00;3.55;;;;;;;;;;6126237;23;20017;-71
2022/01/20 07:29:10;;;;;;;4.68;3.55;;;;;;;;;;6126636;23;20001;-71
2022/01/20 07:31:37;;;;;;;4.07;2.88;;;;;;;;;;6126422;23;20100;-70
2022/01/20 07:34:03;;;;;;;2.05;1.70;;;;;;;;;;6127854;23;20025;-70
2022/01/20 07:36:28;;;;;;;2.45;2.25;;;;;;;;;;6126770;23;20350;-70
2022/01/20 07:38:55;;;;;;;2.00;1.70;;;;;;;;;;6128005;23;20558;-70
2022/01/20 07:41:23;;;;;;;2.75;2.30;;;;;;;;;;6127456;23;20025;-69
2022/01/20 07:43:49;;;;;;;2.53;2.20;;;;;;;;;;6127943;23;20418;-70
2022/01/20 07:46:33;;;;;;;1.50;1.40;;;;;;;;;;6127606;23;20013;-70
2022/01/20 07:49:04;;;;;;;1.90;1.65;;;;;;;;;;6127786;23;20017;-70
2022/01/20 07:51:29;;;;;;;2.83;1.98;;;;;;;;;;6127887;23;20009;-70
2022/01/20 07:53:56;;;;;;;1.70;1.60;;;;;;;;;;6127248;23;20722;-70
2022/01/20 07:56:23;;;;;;;2.67;1.88;;;;;;;;;;6127646;23;20013;-70
2022/01/20 07:58:49;;;;;;;2.70;1.35;;;;;;;;;;6127271;23;20586;-70
2022/01/20 08:01:15;;;;;;;2.38;1.80;;;;;;;;;;6127503;23;20053;-70
2022/01/20 08:03:49;;;;;;;3.05;2.20;;;;;;;;;;6127727;23;20426;-70
2022/01/20 08:06:20;;;;;;;1.67;1.25;;;;;;;;;;6127235;23;20458;-69
2022/01/20 08:08:46;;;;;;;2.40;2.10;;;;;;;;;;6126149;23;20093;-70
2022/01/20 08:11:34;;;;;;;2.90;1.92;;;;;;;;;;6127518;23;20005;-70
2022/01/20 08:14:22;;;;;;;3.05;2.10;;;;;;;;;;6098310;23;20521;-70
2022/01/20 08:16:48;;;;;;;3.38;1.92;;;;;;;;;;6127127;23;20020;-70
2022/01/20 08:19:15;;;;;;;2.47;1.73;;;;;;;;;;6127372;23;20001;-71
2022/01/20 08:21:41;;;;;;;3.20;2.17;;;;;;;;;;6127210;23;20184;-70
2022/01/20 08:24:08;;;;;;;2.63;2.05;;;;;;;;;;6127358;23;20005;-71
2022/01/20 08:26:34;;;;;;;3.13;2.25;;;;;;;;;;6153234;23;20033;-70
2022/01/20 08:28:59;;;;;;;2.53;1.98;;;;;;;;;;6126996;23;20484;-69
2022/01/20 08:31:26;;;;;;;2.67;2.17;;;;;;;;;;6127494;23;20014;-70
2022/01/20 08:33:52;;;;;;;4.43;1.98;;;;;;;;;;6126758;23;20107;-69
2022/01/20 08:36:25;;;;;;;3.05;2.22;;;;;;;;;;6126679;23;20021;-70
2022/01/20 08:38:54;;;;;;;1.70;1.23;;;;;;;;;;6126953;23;20009;-70
2022/01/20 08:41:20;;;;;;;2.28;1.90;;;;;;;;;;6153896;23;20431;-71
2022/01/20 08:43:46;;;;;;;2.58;1.80;;;;;;;;;;6127246;23;20068;-70
2022/01/20 08:46:12;;;;;;;2.55;2.25;;;;;;;;;;6126421;23;20009;-70
2022/01/20 08:48:38;;;;;;;4.40;2.42;;;;;;;;;;6151264;23;20067;-70
2022/01/20 08:51:33;;;;;;;5.57;3.03;;;;;;;;;;6113175;23;20013;-70
2022/01/20 08:54:10;;;;;;;5.90;2.58;;;;;;;;;;6125265;23;20024;-70
2022/01/20 08:56:38;;;;;;;3.60;2.40;;;;;;;;;;6125561;23;20085;-71
2022/01/20 08:59:07;;;;;;;4.68;2.95;;;;;;;;;;6125318;23;20056;-70
2022/01/20 09:01:35;;;;;;;7.22;2.53;;;;;;;;;;6125852;23;20009;-70
2022/01/20 09:04:00;;;;;;;3.10;2.35;;;;;;;;;;6125513;23;20006;-71
2022/01/20 09:06:26;;;;;;;4.82;2.25;;;;;;;;;;6125849;23;20673;-71
2022/01/20 09:09:02;;;;;;;6.68;2.90;;;;;;;;;;6125344;23;20010;-71
2022/01/20 09:11:37;;;;;;;4.93;2.42;;;;;;;;;;6125384;23;20026;-71
2022/01/20 09:16:53;;;;;;;3.88;2.40;;;;;;;;;;6125668;23;20048;-70
2022/01/20 09:19:22;;;;;;;6.18;2.88;;;;;;;;;;6125540;23;20085;-70
2022/01/20 09:21:59;;;;;;;7.97;3.60;;;;;;;;;;6103307;23;20024;-70
2022/01/20 09:24:26;;;;;;;6.85;3.80;;;;;;;;;;6125601;23;20628;-71
2022/01/20 09:26:52;;;;;;;8.05;3.88;;;;;;;;;;6125452;23;20013;-71
2022/01/20 09:29:18;;;;;;;7.65;4.55;;;;;;;;;;6151954;23;20371;-70
2022/01/20 09:31:43;;;;;;;6.28;4.70;;;;;;;;;;6125269;23;20017;-71
2022/01/20 09:34:14;;;;;;;6.95;5.50;;;;;;;;;;6125210;23;20016;-70
2022/01/20 09:36:42;;;;;;;9.48;6.03;;;;;;;;;;6125184;23;20089;-70
2022/01/20 09:39:08;;;;;;;10.65;7.15;;;;;;;;;;6100981;23;20016;-71
2022/01/20 09:41:44;;;;;;;6.25;4.72;;;;;;;;;;6125801;23;20009;-71
2022/01/20 09:44:10;;;;;;;7.50;5.07;;;;;;;;;;6125571;23;20469;-71
2022/01/20 09:46:36;;;;;;;7.35;5.07;;;;;;;;;;6125456;23;20005;-70
2022/01/20 09:49:19;;;;;;;13.52;7.35;;;;;;;;;;6125446;23;20016;-71
2022/01/20 09:51:45;;;;;;;9.55;4.88;;;;;;;;;;6125539;23;20018;-70
2022/01/20 09:54:14;;;;;;;8.07;5.22;;;;;;;;;;6124627;23;20040;-70
2022/01/20 09:57:02;;;;;;;8.18;6.15;;;;;;;;;;6139947;23;20041;-69
2022/01/20 09:59:30;;;;;;;5.97;4.00;;;;;;;;;;6123136;23;20009;-70
2022/01/20 10:01:57;;;;;;;5.88;3.97;;;;;;;;;;6123887;23;20015;-71
2022/01/20 10:04:30;;;;;;;9.10;5.50;;;;;;;;;;6125214;23;20009;-71
2022/01/20 10:06:59;;;;;;;3.90;3.15;;;;;;;;;;6124643;23;20006;-70
2022/01/20 10:09:26;;;;;;;9.65;6.32;;;;;;;;;;6124432;23;20016;-70
2022/01/20 10:12:01;;;;;;;7.75;4.75;;;;;;;;;;6151040;23;20010;-70
2022/01/20 10:14:57;;;;;;;7.68;4.15;;;;;;;;;;6151028;23;20060;-70
2022/01/20 10:17:41;;;;;;;11.10;4.93;;;;;;;;;;6151380;23;20156;-70
2022/01/20 10:20:08;;;;;;;8.90;5.53;;;;;;;;;;6124867;23;20033;-70
2022/01/20 10:22:54;;;;;;;9.48;4.80;;;;;;;;;;6125010;23;20323;-70
2022/01/20 10:25:38;;;;;;;10.55;5.10;;;;;;;;;;6152750;23;20014;-70
2022/01/20 10:28:13;;;;;;;5.95;4.13;;;;;;;;;;6157620;23;20017;-69
2022/01/20 10:30:40;;;;;;;7.32;4.57;;;;;;;;;;6131258;23;20006;-69
2022/01/20 10:33:06;;;;;;;7.75;4.75;;;;;;;;;;6131226;23;20078;-69
2022/01/20 10:35:38;;;;;;;7.03;3.72;;;;;;;;;;6131316;23;20434;-69
2022/01/20 10:38:21;;;;;;;8.68;4.25;;;;;;;;;;6123305;23;20021;-68
2022/01/20 10:40:54;;;;;;;7.82;4.70;;;;;;;;;;6131349;23;20445;-71
2022/01/20 10:43:27;;;;;;;9.68;4.78;;;;;;;;;;6131104;23;20346;-70
2022/01/20 10:46:01;;;;;;;5.57;3.70;;;;;;;;;;6130953;23;20013;-69
2022/01/20 10:48:27;;;;;;;6.03;3.70;;;;;;;;;;6130950;23;20013;-70
2022/01/20 10:50:54;;;;;;;5.88;3.55;;;;;;;;;;6131072;23;20335;-70
2022/01/20 10:53:20;;;;;;;4.13;2.50;;;;;;;;;;6130964;23;20009;-69
2022/01/20 10:55:47;;;;;;;1.42;1.33;;;;;;;;;;6131258;23;19997;-69
2022/01/20 10:58:17;;;;;;;4.47;2.42;;;;;;;;;;6131141;23;20005;-70
2022/01/20 11:00:46;;;;;;;1.38;1.27;;;;;;;;;;6130928;23;20063;-70
2022/01/20 11:03:12;;;;;;;3.85;1.15;;;;;;;;;;6130855;23;20009;-70
2022/01/20 11:05:39;;;;;;;1.35;1.10;;;;;;;;;;6130908;23;20029;-70
2022/01/20 11:08:06;;;;;;;1.50;1.30;;;;;;;;;;6131263;23;20084;-70
2022/01/20 11:10:32;;;;;;;0.90;0.80;;;;;;;;;;6130475;23;20006;-70
2022/01/20 11:13:19;;;;;;;2.25;1.00;;;;;;;;;;6090479;23;20010;-70
2022/01/20 11:15:50;;;;;;;2.05;1.10;;;;;;;;;;6157021;23;20006;-70
2022/01/20 11:18:17;;;;;;;3.63;1.02;;;;;;;;;;6131128;23;20362;-70
2022/01/20 11:20:46;;;;;;;0.70;0.70;;;;;;;;;;6130494;23;20005;-70
2022/01/20 11:23:14;;;;;;;1.25;0.90;;;;;;;;;;6130780;23;20013;-70
2022/01/20 11:26:02;;;;;;;2.15;1.00;;;;;;;;;;6131055;23;20009;-70
2022/01/20 11:28:59;;;;;;;1.23;0.93;;;;;;;;;;6110831;23;20092;-70
2022/01/20 11:31:44;;;;;;;1.17;1.00;;;;;;;;;;6131381;23;20017;-70
2022/01/20 11:34:38;;;;;;;1.17;0.88;;;;;;;;;;6131312;23;20009;-70
2022/01/20 11:37:09;;;;;;;1.25;0.90;;;;;;;;;;6159983;23;20366;-69
2022/01/20 11:39:35;;;;;;;2.42;1.27;;;;;;;;;;6160504;23;20013;-70
2022/01/20 11:42:01;;;;;;;1.45;1.05;;;;;;;;;;6186365;23;20009;-70
2022/01/20 11:44:31;;;;;;;2.15;1.70;;;;;;;;;;6186434;23;20109;-70
2022/01/20 11:47:07;;;;;;;1.50;1.00;;;;;;;;;;6186264;23;20318;-70
2022/01/20 11:49:37;;;;;;;1.60;1.02;;;;;;;;;;6160111;23;20432;-70
2022/01/20 11:52:03;;;;;;;1.67;1.27;;;;;;;;;;6186138;23;20058;-70
2022/01/20 11:54:30;;;;;;;2.72;1.70;;;;;;;;;;6186182;23;20032;-70
2022/01/20 11:57:12;;;;;;;3.40;1.67;;;;;;;;;;6186156;23;20333;-70
2022/01/20 11:59:41;;;;;;;1.08;0.98;;;;;;;;;;6159719;23;20012;-70
2022/01/20 12:02:07;;;;;;;2.15;1.40;;;;;;;;;;6186253;23;20011;-70
2022/01/20 12:04:32;;;;;;;1.15;1.08;;;;;;;;;;6135092;23;20025;-70
2022/01/20 12:06:58;;;;;;;2.25;1.40;;;;;;;;;;6159733;23;20039;-70
2022/01/20 12:13:05;;;;;;;2.67;1.67;;;;;;;;;;6186611;23;20068;-70
2022/01/20 12:19:10;;;;;;;1.10;0.95;;;;;;;;;;6186546;23;20394;-70
2022/01/20 12:25:14;;;;;;;1.00;0.90;;;;;;;;;;6186099;23;20093;-70
2022/01/20 12:31:15;;;;;;;0.98;0.88;;;;;;;;;;6186355;23;20080;-69
2022/01/20 12:41:18;;;;;;;1.70;1.40;;;;;;;;;;6186357;23;20395;-70
2022/01/20 12:47:26;;;;;;;1.77;1.40;;;;;;;;;;6186337;23;20397;-70
2022/01/20 12:53:54;;;;;;;1.50;1.10;;;;;;;;;;6095327;23;20030;-70
2022/01/20 13:04:13;;;;;;;2.80;1.20;;;;;;;;;;6095238;23;20009;-70
2022/01/20 13:10:21;;;;;;;1.65;1.10;;;;;;;;;;6094974;23;20522;-70
2022/01/20 13:20:42;;;;;;;1.48;1.17;;;;;;;;;;6037800;23;20007;-70
2022/01/20 13:30:52;;;;;;;0.95;0.70;;;;;;;;;;6124353;23;20525;-70
2022/01/20 13:36:54;;;;;;;1.98;1.25;;;;;;;;;;6125314;23;20001;-70
2022/01/20 13:47:27;;;;;;;3.22;1.40;;;;;;;;;;6187987;23;20092;-70
2022/01/20 13:53:41;;;;;;;2.45;1.35;;;;;;;;;;6187922;23;20000;-70
2022/01/20 13:59:46;;;;;;;4.82;2.45;;;;;;;;;;6187838;23;20004;-70
2022/01/20 14:05:49;;;;;;;3.13;1.63;;;;;;;;;;6187848;23;20007;-70
2022/01/20 14:11:49;;;;;;;3.55;2.35;;;;;;;;;;6187655;23;20043;-70
2022/01/20 14:21:24;;;;;;;1.55;1.20;;;;;;;;;;6187637;23;20124;-70
2022/01/20 14:27:25;;;;;;;2.88;1.45;;;;;;;;;;6187615;23;20373;-70
2022/01/20 14:33:26;;;;;;;2.13;1.67;;;;;;;;;;6187542;23;20477;-70
2022/01/20 15:02:59;;;;;;;2.13;1.42;;;;;;;;;;6187315;23;20077;-70
2022/01/20 15:06:02;;;;;;;2.95;1.65;;;;;;;;;;6187444;23;20002;-70
2022/01/20 15:08:27;;;;;;;3.60;1.75;;;;;;;;;;6186065;23;20005;-70
2022/01/20 15:10:53;;;;;;;3.92;2.10;;;;;;;;;;6160383;23;20669;-70
2022/01/20 15:13:18;;;;;;;4.35;2.10;;;;;;;;;;6186639;23;20379;-70
2022/01/20 15:15:44;;;;;;;2.80;1.70;;;;;;;;;;6186704;23;20013;-70
2022/01/20 15:18:09;;;;;;;3.15;2.10;;;;;;;;;;6160231;23;20009;-70
2022/01/20 15:20:35;;;;;;;4.82;2.53;;;;;;;;;;6186635;23;20432;-69
2022/01/20 15:23:00;;;;;;;3.50;2.60;;;;;;;;;;6186465;23;20005;-70
2022/01/20 15:25:27;;;;;;;3.13;1.98;;;;;;;;;;6175914;23;20315;-70
2022/01/20 15:27:54;;;;;;;6.30;3.53;;;;;;;;;;6182915;23;20017;-70
2022/01/20 15:30:20;;;;;;;6.82;3.58;;;;;;;;;;6182215;23;20063;-70
2022/01/20 15:32:46;;;;;;;5.20;3.20;;;;;;;;;;6182588;23;20009;-70
2022/01/20 15:35:11;;;;;;;3.13;1.73;;;;;;;;;;6182378;23;20005;-70
2022/01/20 15:37:37;;;;;;;4.85;2.38;;;;;;;;;;6155473;23;20338;-70
2022/01/20 15:40:04;;;;;;;5.70;3.08;;;;;;;;;;6182044;23;20005;-70
2022/01/20 15:42:29;;;;;;;4.20;2.85;;;;;;;;;;6182127;23;20028;-70
2022/01/20 15:44:55;;;;;;;8.57;4.53;;;;;;;;;;6181903;23;20016;-69
2022/01/20 15:47:21;;;;;;;6.57;3.17;;;;;;;;;;6182135;23;20012;-70
2022/01/20 15:49:46;;;;;;;4.43;2.63;;;;;;;;;;6182376;23;20705;-70
2022/01/20 15:52:12;;;;;;;6.70;3.45;;;;;;;;;;6181400;23;20029;-70
2022/01/20 15:54:37;;;;;;;4.22;2.83;;;;;;;;;;6181999;23;20429;-70
2022/01/20 15:57:03;;;;;;;5.30;2.70;;;;;;;;;;6182326;23;20005;-70
2022/01/20 15:59:28;;;;;;;8.13;3.50;;;;;;;;;;6182235;23;20455;-70
2022/01/20 16:01:54;;;;;;;5.85;3.22;;;;;;;;;;6182418;23;20087;-69
2022/01/20 16:04:19;;;;;;;7.20;3.03;;;;;;;;;;6182382;23;20004;-70
2022/01/20 16:06:47;;;;;;;8.52;3.53;;;;;;;;;;6181707;23;20389;-71
2022/01/20 16:09:12;;;;;;;7.50;3.60;;;;;;;;;;6182368;23;20009;-70
2022/01/20 16:11:39;;;;;;;8.60;3.22;;;;;;;;;;6182178;23;20019;-70
2022/01/20 16:14:04;;;;;;;13.63;5.00;;;;;;;;;;6181922;23;19997;-70
2022/01/20 16:16:30;;;;;;;11.07;3.88;;;;;;;;;;6182003;23;20012;-70
2022/01/20 16:18:55;;;;;;;8.07;3.20;;;;;;;;;;6156021;23;20005;-70
2022/01/20 16:21:22;;;;;;;5.82;2.92;;;;;;;;;;6182509;23;20096;-70
2022/01/20 16:23:47;;;;;;;11.13;4.68;;;;;;;;;;6182359;23;20456;-70
2022/01/20 16:26:13;;;;;;;12.00;4.32;;;;;;;;;;6181840;23;20021;-70
2022/01/20 16:28:39;;;;;;;9.20;4.05;;;;;;;;;;6182379;23;20008;-70
2022/01/20 16:31:04;;;;;;;7.45;4.07;;;;;;;;;;6182177;23;20040;-70
2022/01/20 16:33:30;;;;;;;10.13;3.75;;;;;;;;;;6183790;23;20001;-70
2022/01/20 16:35:55;;;;;;;8.82;3.47;;;;;;;;;;6185852;23;20127;-70
2022/01/20 16:38:20;;;;;;;6.13;3.50;;;;;;;;;;6185870;23;20024;-70
2022/01/20 16:40:46;;;;;;;6.35;3.30;;;;;;;;;;6185285;23;20005;-70
2022/01/20 16:43:11;;;;;;;7.10;3.58;;;;;;;;;;6185862;23;20068;-70
2022/01/20 16:45:37;;;;;;;9.13;4.10;;;;;;;;;;6185439;23;20083;-69
2022/01/20 16:48:03;;;;;;;8.43;4.30;;;;;;;;;;6184644;23;20104;-70
2022/01/20 16:50:28;;;;;;;8.45;4.32;;;;;;;;;;6185471;23;20107;-70
2022/01/20 16:52:54;;;;;;;7.65;3.72;;;;;;;;;;6186007;23;20004;-70
2022/01/20 16:58:55;;;;;;;10.35;4.32;;;;;;;;;;6186237;23;20073;-70
2022/01/20 17:04:55;;;;;;;11.30;4.35;;;;;;;;;;6186197;23;20046;-70
2022/01/20 17:10:57;;;;;;;6.28;2.92;;;;;;;;;;6185834;23;20036;-70
2022/01/20 17:16:58;;;;;;;6.32;3.13;;;;;;;;;;6186148;23;20433;-69
2022/01/20 17:23:00;;;;;;;10.75;4.70;;;;;;;;;;6186112;23;20015;-70
2022/01/20 17:29:00;;;;;;;8.15;3.35;;;;;;;;;;6186101;23;20458;-70
2022/01/20 17:38:52;;;;;;;11.77;4.20;;;;;;;;;;6186027;23;20000;-70
2022/01/20 17:48:41;;;;;;;10.73;4.72;;;;;;;;;;6186000;23;20097;-70
2022/01/20 17:54:41;;;;;;;10.32;4.45;;;;;;;;;;6185945;23;20136;-70
2022/01/20 18:00:42;;;;;;;5.32;2.97;;;;;;;;;;6185920;23;20117;-70
2022/01/20 18:06:44;;;;;;;9.52;3.45;;;;;;;;;;6185895;23;20322;-70
2022/01/20 18:12:44;;;;;;;6.68;3.00;;;;;;;;;;6185880;23;20043;-70
2022/01/20 18:18:45;;;;;;;6.85;3.10;;;;;;;;;;6185930;23;20044;-69
2022/01/20 18:24:47;;;;;;;8.10;3.30;;;;;;;;;;6187058;23;20000;-70
2022/01/20 18:27:13;;;;;;;6.65;2.95;;;;;;;;;;6186957;23;20009;-70
2022/01/20 18:29:38;;;;;;;7.18;3.05;;;;;;;;;;6187090;23;20016;-70
2022/01/20 18:32:04;;;;;;;5.97;3.60;;;;;;;;;;6186844;23;20017;-70
2022/01/20 18:34:29;;;;;;;9.30;3.70;;;;;;;;;;6187336;23;20024;-70
2022/01/20 18:36:55;;;;;;;7.57;3.63;;;;;;;;;;6186986;23;20001;-70
2022/01/20 18:39:20;;;;;;;8.55;2.97;;;;;;;;;;6187043;23;20004;-69
2022/01/20 18:41:46;;;;;;;5.82;3.05;;;;;;;;;;6186645;23;20433;-69
2022/01/20 18:44:13;;;;;;;6.65;2.95;;;;;;;;;;6185996;23;20393;-70
2022/01/20 18:46:39;;;;;;;5.43;3.13;;;;;;;;;;6187257;23;20016;-69
2022/01/20 18:49:04;;;;;;;6.68;2.95;;;;;;;;;;6160779;23;20008;-69
2022/01/20 18:51:30;;;;;;;11.57;3.85;;;;;;;;;;6186772;23;20012;-69
2022/01/20 18:53:56;;;;;;;11.13;3.83;;;;;;;;;;6186993;23;19993;-69
2022/01/20 18:56:22;;;;;;;7.22;2.83;;;;;;;;;;6187046;23;20005;-69